Time;durP1;ratioP1;P1;durP2;ratioP2;P2;SDS_P1;SDS_P2;PMS_P1;PMS_P2;Temp;Humidity;BMP_temperature;BMP_pressure;BME280_temperature;BME280_humidity;BME280_pressure;Samples;Min_cycle;Max_cycle;Signal;HPM_P1;HPM_P2
2023/12/20 00:01:14;;;;;;;7.22;4.07;;;;;;;;;;7362257;19;20279;-81
2023/12/20 00:03:39;;;;;;;5.60;3.50;;;;;;;;;;7337776;19;20279;-82
2023/12/20 00:06:04;;;;;;;6.03;3.50;;;;;;;;;;7351267;19;20017;-84
2023/12/20 00:08:29;;;;;;;6.70;4.00;;;;;;;;;;7366384;19;20283;-82
2023/12/20 00:10:54;;;;;;;6.70;3.92;;;;;;;;;;7357034;19;20279;-80
2023/12/20 00:13:19;;;;;;;7.32;4.30;;;;;;;;;;7371259;19;20279;-78
2023/12/20 00:15:44;;;;;;;6.22;3.80;;;;;;;;;;7348776;19;20284;-81
2023/12/20 00:18:10;;;;;;;9.53;4.77;;;;;;;;;;7354329;19;20390;-78
2023/12/20 00:20:35;;;;;;;7.60;4.40;;;;;;;;;;7368325;19;20275;-85
2023/12/20 00:23:00;;;;;;;7.25;4.70;;;;;;;;;;7349705;19;21403;-82
2023/12/20 00:25:26;;;;;;;9.68;5.03;;;;;;;;;;7366221;19;20009;-78
2023/12/20 00:27:51;;;;;;;6.60;4.10;;;;;;;;;;7360717;19;20468;-84
2023/12/20 00:30:16;;;;;;;6.80;4.35;;;;;;;;;;7358377;19;20303;-85
2023/12/20 00:32:46;;;;;;;7.70;4.82;;;;;;;;;;7363942;19;20564;-81
2023/12/20 00:35:11;;;;;;;7.10;4.65;;;;;;;;;;7365630;19;20010;-78
2023/12/20 00:37:36;;;;;;;7.50;4.93;;;;;;;;;;7340990;19;20461;-81
2023/12/20 00:40:02;;;;;;;7.47;4.93;;;;;;;;;;7335850;19;20007;-81
2023/12/20 00:42:27;;;;;;;9.23;4.95;;;;;;;;;;7360510;19;20790;-78
2023/12/20 00:44:52;;;;;;;17.17;6.05;;;;;;;;;;7349062;19;20014;-85
2023/12/20 00:47:17;;;;;;;7.82;5.03;;;;;;;;;;7360436;19;20282;-83
2023/12/20 00:49:43;;;;;;;6.65;4.53;;;;;;;;;;7367773;19;20284;-78
2023/12/20 00:52:08;;;;;;;8.57;5.00;;;;;;;;;;7363338;19;20040;-79
2023/12/20 00:54:34;;;;;;;8.03;4.70;;;;;;;;;;7365992;19;20021;-82
2023/12/20 00:56:59;;;;;;;6.90;4.68;;;;;;;;;;7346932;19;20259;-77
2023/12/20 00:59:24;;;;;;;7.88;5.00;;;;;;;;;;7360212;19;20146;-81
2023/12/20 01:01:49;;;;;;;8.43;5.65;;;;;;;;;;7350940;19;19995;-81
2023/12/20 01:04:15;;;;;;;9.05;5.68;;;;;;;;;;7323050;19;20002;-82
2023/12/20 01:06:40;;;;;;;9.43;5.85;;;;;;;;;;7360326;19;20052;-79
2023/12/20 01:09:05;;;;;;;14.10;7.43;;;;;;;;;;7360078;19;20281;-85
2023/12/20 01:11:30;;;;;;;11.07;6.72;;;;;;;;;;7350120;19;20299;-79
2023/12/20 01:13:55;;;;;;;13.25;6.93;;;;;;;;;;7350425;19;21109;-84
2023/12/20 01:16:20;;;;;;;10.18;6.20;;;;;;;;;;7353129;19;20260;-77
2023/12/20 01:18:46;;;;;;;10.13;6.68;;;;;;;;;;7361210;19;20362;-81
2023/12/20 01:21:11;;;;;;;9.15;6.10;;;;;;;;;;7354601;19;20002;-80
2023/12/20 01:23:36;;;;;;;10.15;6.55;;;;;;;;;;7366923;19;20364;-80
2023/12/20 01:26:02;;;;;;;7.87;5.40;;;;;;;;;;7357177;19;20876;-84
2023/12/20 01:28:27;;;;;;;8.88;5.78;;;;;;;;;;7353427;19;20267;-78
2023/12/20 01:30:52;;;;;;;8.80;5.63;;;;;;;;;;7344907;19;19998;-82
2023/12/20 01:33:17;;;;;;;10.48;5.88;;;;;;;;;;7350124;19;20976;-85
2023/12/20 01:35:43;;;;;;;10.48;6.13;;;;;;;;;;7362063;19;20017;-80
2023/12/20 01:38:08;;;;;;;7.82;4.72;;;;;;;;;;7363352;19;20006;-82
2023/12/20 01:40:34;;;;;;;7.97;5.07;;;;;;;;;;7359969;19;20018;-77
2023/12/20 01:43:00;;;;;;;7.68;4.82;;;;;;;;;;7346059;19;20326;-78
2023/12/20 01:45:25;;;;;;;7.38;4.55;;;;;;;;;;7353294;19;20059;-79
2023/12/20 01:47:50;;;;;;;7.50;4.50;;;;;;;;;;7358678;19;20040;-85
2023/12/20 01:50:16;;;;;;;8.05;4.45;;;;;;;;;;7354899;19;20007;-77
2023/12/20 01:52:42;;;;;;;7.72;4.72;;;;;;;;;;7354200;19;20761;-82
2023/12/20 01:55:12;;;;;;;7.57;4.50;;;;;;;;;;7359256;19;20150;-78
2023/12/20 01:57:38;;;;;;;14.80;8.30;;;;;;;;;;7320045;19;20014;-85
2023/12/20 02:00:03;;;;;;;19.13;12.02;;;;;;;;;;7299478;19;20072;-82
2023/12/20 02:02:29;;;;;;;27.20;16.15;;;;;;;;;;7350024;19;20062;-83
2023/12/20 02:04:54;;;;;;;31.88;16.48;;;;;;;;;;7361440;19;20017;-79
2023/12/20 02:07:20;;;;;;;26.52;16.17;;;;;;;;;;7365536;19;20806;-78
2023/12/20 02:09:46;;;;;;;26.20;15.82;;;;;;;;;;7362238;19;20077;-80
